Time;durP1;ratioP1;P1;durP2;ratioP2;P2;SDS_P1;SDS_P2;PMS_P1;PMS_P2;Temp;Humidity;BMP_temperature;BMP_pressure;BME280_temperature;BME280_humidity;BME280_pressure;Samples;Min_cycle;Max_cycle;Signal;HPM_P1;HPM_P2
2023/03/01 00:00:40;;;;;;;3.33;2.03;;;;;;;11.99;56.73;95954.00;4994545;28;20065;-26
2023/03/01 00:03:06;;;;;;;4.43;2.63;;;;;;;12.01;56.33;95949.63;4995158;28;20425;-26
2023/03/01 00:05:31;;;;;;;3.25;2.10;;;;;;;11.86;56.57;95945.94;4995038;28;20018;-26
2023/03/01 00:07:57;;;;;;;3.80;2.40;;;;;;;11.92;56.16;95937.97;4995782;28;20019;-26
2023/03/01 00:10:23;;;;;;;3.28;2.33;;;;;;;12.05;55.61;95938.63;4995579;28;20033;-26
2023/03/01 00:12:48;;;;;;;3.85;2.20;;;;;;;12.11;55.86;95926.72;4995252;28;20026;-26
2023/03/01 00:15:13;;;;;;;3.75;2.40;;;;;;;12.10;55.92;95930.66;4995533;28;20033;-27
2023/03/01 00:17:39;;;;;;;3.42;2.17;;;;;;;12.14;55.58;95919.63;5007652;28;20054;-26
2023/03/01 00:20:09;;;;;;;3.72;2.15;;;;;;;11.98;56.09;95925.31;4995890;28;20026;-27
2023/03/01 00:22:36;;;;;;;4.20;2.30;;;;;;;12.05;55.81;95927.75;4994720;28;20022;-26
2023/03/01 00:25:01;;;;;;;5.05;2.22;;;;;;;12.29;55.05;95917.09;4995116;28;20034;-26
2023/03/01 00:27:27;;;;;;;3.97;2.90;;;;;;;12.03;56.14;95905.69;4995099;28;20021;-26
2023/03/01 00:29:52;;;;;;;3.25;2.42;;;;;;;12.06;55.02;95902.84;4994648;28;20113;-26
2023/03/01 00:32:18;;;;;;;3.63;2.20;;;;;;;12.13;55.89;95896.34;4995281;28;20114;-26
2023/03/01 00:34:53;;;;;;;4.80;2.42;;;;;;;11.96;56.08;95884.25;4994908;28;20060;-26
2023/03/01 00:37:20;;;;;;;4.05;2.40;;;;;;;12.17;55.58;95886.88;4995089;28;20578;-26
2023/03/01 00:39:46;;;;;;;3.78;2.20;;;;;;;11.97;56.22;95877.59;4999763;28;20121;-26
2023/03/01 00:42:12;;;;;;;5.47;2.78;;;;;;;12.14;55.63;95873.41;4993114;28;20383;-26
2023/03/01 00:44:37;;;;;;;4.32;2.30;;;;;;;11.99;55.89;95875.94;4994691;28;20029;-26
2023/03/01 00:47:03;;;;;;;4.05;2.85;;;;;;;12.00;55.97;95885.59;4995063;28;20038;-26
2023/03/01 00:49:28;;;;;;;2.95;2.08;;;;;;;12.13;55.92;95877.31;4995493;28;20439;-26
2023/03/01 00:51:54;;;;;;;4.97;2.35;;;;;;;12.08;55.63;95872.50;4994861;28;20022;-26
2023/03/01 00:54:19;;;;;;;5.00;2.50;;;;;;;12.11;55.36;95863.44;4994943;28;20023;-26
2023/03/01 00:56:44;;;;;;;3.72;2.42;;;;;;;12.11;55.84;95882.47;4994993;28;20030;-26
2023/03/01 00:59:10;;;;;;;3.08;2.40;;;;;;;11.95;55.56;95863.69;4994055;28;20015;-26
2023/03/01 01:01:35;;;;;;;4.90;2.72;;;;;;;11.96;56.24;95865.22;4996317;28;20033;-26
2023/03/01 01:04:05;;;;;;;3.85;2.38;;;;;;;12.05;55.42;95879.59;5014899;28;20025;-26
2023/03/01 01:06:36;;;;;;;4.47;2.70;;;;;;;12.15;55.42;95874.91;5000992;28;20021;-26
2023/03/01 01:09:04;;;;;;;4.07;2.80;;;;;;;11.96;55.66;95884.25;5001665;28;20026;-26
2023/03/01 01:11:30;;;;;;;4.65;2.58;;;;;;;11.84;55.75;95881.19;5000931;28;20030;-27
2023/03/01 01:13:57;;;;;;;4.00;2.58;;;;;;;11.90;55.82;95888.72;5000942;28;20033;-27
2023/03/01 01:16:25;;;;;;;3.90;2.53;;;;;;;12.09;55.17;95891.06;5000663;28;20026;-26
2023/03/01 01:18:50;;;;;;;4.43;2.75;;;;;;;11.93;55.49;95893.28;5000387;28;20022;-26
2023/03/01 01:21:19;;;;;;;3.85;2.17;;;;;;;11.95;56.00;95890.88;5000980;28;20048;-26
2023/03/01 01:23:45;;;;;;;4.07;2.80;;;;;;;12.00;55.91;95895.72;5000722;28;20446;-26
2023/03/01 01:26:15;;;;;;;4.32;2.95;;;;;;;12.10;55.44;95902.72;5000853;28;20022;-26
2023/03/01 01:28:40;;;;;;;6.43;2.50;;;;;;;12.24;55.75;95902.13;5001114;28;20048;-26
2023/03/01 01:31:06;;;;;;;5.07;2.53;;;;;;;12.13;56.00;95909.94;5000703;28;20058;-26
2023/03/01 01:33:32;;;;;;;3.30;2.40;;;;;;;12.20;55.70;95913.16;5000996;28;20518;-26
2023/03/01 01:35:58;;;;;;;3.28;2.22;;;;;;;12.05;56.29;95908.72;5000474;28;20037;-26
2023/03/01 01:38:23;;;;;;;5.00;3.05;;;;;;;11.89;56.33;95898.84;5001369;28;20026;-26
2023/03/01 01:40:50;;;;;;;5.60;2.67;;;;;;;11.91;56.99;95898.41;5000364;28;20064;-26
2023/03/01 01:43:23;;;;;;;3.97;2.50;;;;;;;12.10;55.70;95917.06;5009950;28;20034;-26
2023/03/01 01:45:48;;;;;;;;;;;;;;;12.17;55.66;95908.59;5008572;28;20471;-27
2023/03/01 01:48:23;;;;;;;5.00;2.88;;;;;;;12.04;56.15;95909.91;5000343;28;19960;-27
2023/03/01 01:51:00;;;;;;;4.47;2.40;;;;;;;12.02;56.51;95902.22;5001245;28;20385;-26
2023/03/01 01:53:26;;;;;;;4.45;2.90;;;;;;;12.19;55.83;95895.34;5000938;28;20464;-27
2023/03/01 01:55:58;;;;;;;4.13;2.53;;;;;;;12.33;55.80;95885.09;5000633;28;20097;-27
2023/03/01 01:58:26;;;;;;;5.07;3.03;;;;;;;12.25;56.28;95871.00;5012965;28;20425;-26
2023/03/01 02:00:53;;;;;;;4.22;2.38;;;;;;;12.16;56.26;95879.16;5000914;28;20050;-26
2023/03/01 02:03:32;;;;;;;3.30;2.30;;;;;;;12.05;56.31;95876.09;5000765;28;20038;-26
2023/03/01 02:06:04;;;;;;;3.05;2.10;;;;;;;11.96;56.73;95871.41;5000403;28;20029;-26
2023/03/01 02:08:33;;;;;;;4.32;2.17;;;;;;;11.96;56.54;95867.94;5000144;28;20026;-26
2023/03/01 02:10:59;;;;;;;3.72;2.05;;;;;;;11.97;56.05;95853.91;5001004;28;20021;-26
2023/03/01 02:13:25;;;;;;;2.67;1.85;;;;;;;11.96;56.22;95859.78;4998193;28;20462;-27
2023/03/01 02:15:51;;;;;;;2.13;1.50;;;;;;;12.09;55.96;95841.41;4997125;28;20034;-26
2023/03/01 02:18:20;;;;;;;2.58;1.77;;;;;;;12.11;55.83;95847.91;5003941;28;20102;-26
2023/03/01 02:20:52;;;;;;;2.63;1.60;;;;;;;12.02;55.89;95834.28;4996858;28;20105;-26
2023/03/01 02:23:18;;;;;;;2.60;1.67;;;;;;;11.95;56.28;95837.28;4997384;28;20049;-26
2023/03/01 02:25:58;;;;;;;2.22;1.60;;;;;;;12.09;55.77;95838.69;4997089;28;20382;-26
2023/03/01 02:28:29;;;;;;;2.30;1.60;;;;;;;11.87;56.83;95836.78;4997463;28;20088;-26
2023/03/01 02:33:39;;;;;;;3.92;1.85;;;;;;;11.84;56.54;95840.44;4997494;28;20028;-27
2023/03/01 02:36:14;;;;;;;1.90;1.40;;;;;;;11.94;55.94;95843.16;4996762;28;20117;-26
2023/03/01 02:38:41;;;;;;;3.03;1.90;;;;;;;11.90;56.32;95846.00;5004404;28;20022;-26
2023/03/01 02:41:07;;;;;;;2.92;2.08;;;;;;;12.20;55.74;95844.44;4996695;28;20044;-26
2023/03/01 02:43:34;;;;;;;2.30;1.60;;;;;;;12.00;56.01;95852.22;4997211;28;20482;-26
2023/03/01 02:46:14;;;;;;;2.55;1.75;;;;;;;11.84;56.71;95859.44;4997553;28;20030;-26
2023/03/01 02:48:54;;;;;;;2.58;1.55;;;;;;;11.98;56.17;95865.53;5004499;28;20030;-26
2023/03/01 02:51:46;;;;;;;3.80;1.63;;;;;;;11.97;56.56;95864.00;4996840;28;20022;-26
2023/03/01 02:54:33;;;;;;;3.50;1.83;;;;;;;11.99;56.68;95865.06;4997037;28;20029;-26
2023/03/01 02:57:00;;;;;;;2.20;1.60;;;;;;;11.86;57.04;95867.91;5003447;28;20030;-26
2023/03/01 02:59:30;;;;;;;2.20;1.70;;;;;;;11.85;57.07;95871.06;4995957;28;20039;-26
2023/03/01 03:01:56;;;;;;;2.70;1.73;;;;;;;11.86;57.34;95865.19;4997609;28;20489;-27
2023/03/01 03:04:21;;;;;;;3.10;1.70;;;;;;;11.92;57.27;95865.34;4996329;28;20022;-26
2023/03/01 03:06:49;;;;;;;3.35;1.65;;;;;;;12.11;57.28;95866.16;4997383;28;20029;-26
2023/03/01 03:09:16;;;;;;;3.95;1.45;;;;;;;12.09;56.91;95863.91;4997091;28;20426;-26
2023/03/01 03:11:42;;;;;;;3.38;1.45;;;;;;;11.88;57.31;95867.44;4996347;28;20014;-26
2023/03/01 03:14:13;;;;;;;2.63;1.40;;;;;;;11.90;57.53;95867.00;4996214;28;21110;-26
2023/03/01 03:16:49;;;;;;;1.88;1.30;;;;;;;12.15;56.94;95864.03;4996182;28;20131;-26
2023/03/01 03:19:16;;;;;;;2.70;1.60;;;;;;;12.07;56.68;95870.97;4996592;28;20125;-26
2023/03/01 03:21:42;;;;;;;2.35;1.27;;;;;;;11.92;57.12;95873.50;4995995;28;20026;-26
2023/03/01 03:24:08;;;;;;;3.03;1.50;;;;;;;12.15;56.92;95866.75;4996160;28;20029;-26
2023/03/01 03:26:33;;;;;;;5.07;1.30;;;;;;;12.15;57.17;95872.19;4995779;28;20045;-26
2023/03/01 03:28:59;;;;;;;3.05;1.48;;;;;;;12.01;57.48;95878.97;4996353;28;20387;-26
2023/03/01 03:31:24;;;;;;;2.58;1.20;;;;;;;12.07;57.30;95874.47;4995573;28;20417;-26
2023/03/01 03:33:50;;;;;;;1.60;0.95;;;;;;;12.20;57.06;95885.22;4999626;28;20022;-26
2023/03/01 03:36:17;;;;;;;1.42;1.00;;;;;;;11.75;58.18;95880.34;4996111;28;20026;-26
2023/03/01 03:38:44;;;;;;;1.73;1.13;;;;;;;11.89;57.92;95882.53;4995366;28;20022;-26
2023/03/01 03:41:10;;;;;;;2.08;1.17;;;;;;;11.96;57.55;95890.44;4995660;28;20032;-26
2023/03/01 03:43:37;;;;;;;2.03;1.30;;;;;;;12.02;57.94;95890.59;4996238;28;20025;-27
2023/03/01 03:46:07;;;;;;;3.38;1.35;;;;;;;12.04;57.72;95888.19;4995452;28;20381;-26
2023/03/01 03:48:50;;;;;;;1.35;0.88;;;;;;;12.14;56.87;95895.16;4996321;28;20023;-27
2023/03/01 03:51:17;;;;;;;;;;;;;;;11.84;57.89;95894.00;4996376;28;20022;-26
2023/03/01 03:53:43;;;;;;;1.75;1.00;;;;;;;11.95;57.72;95904.47;4995623;28;19995;-26
2023/03/01 03:56:09;;;;;;;1.60;0.95;;;;;;;11.68;58.47;95894.22;4995817;28;20112;-26
2023/03/01 03:58:35;;;;;;;2.97;0.85;;;;;;;12.03;57.56;95900.25;4996076;28;20027;-26
2023/03/01 04:01:01;;;;;;;2.05;1.35;;;;;;;12.09;57.95;95901.19;4994912;28;20065;-27
2023/03/01 04:03:28;;;;;;;2.67;1.08;;;;;;;11.85;58.43;95901.72;4995309;28;20030;-27
2023/03/01 04:05:53;;;;;;;2.25;1.25;;;;;;;11.95;57.85;95899.03;4996133;28;20018;-26
2023/03/01 04:08:21;;;;;;;2.75;0.88;;;;;;;12.09;57.88;95901.94;4995134;28;20011;-26
2023/03/01 04:10:49;;;;;;;0.93;0.70;;;;;;;12.04;57.45;95899.06;4995816;28;20036;-27
2023/03/01 04:13:19;;;;;;;1.05;0.70;;;;;;;12.07;57.01;95898.16;5002037;28;20030;-27
2023/03/01 04:15:45;;;;;;;1.80;0.73;;;;;;;12.02;57.45;95893.31;4994974;28;20444;-27
2023/03/01 04:18:15;;;;;;;1.05;0.63;;;;;;;11.79;57.94;95898.06;4994977;28;20120;-26
2023/03/01 04:20:42;;;;;;;0.73;0.60;;;;;;;11.81;57.80;95903.81;5007743;28;20034;-26
2023/03/01 04:23:15;;;;;;;1.77;0.90;;;;;;;11.85;58.00;95893.56;4995055;28;20084;-26
2023/03/01 04:25:54;;;;;;;1.95;0.75;;;;;;;11.75;58.81;95883.84;4994677;28;20140;-26
2023/03/01 04:28:35;;;;;;;1.52;0.70;;;;;;;11.87;57.80;95885.69;4995478;28;20019;-26
2023/03/01 04:31:13;;;;;;;1.65;0.55;;;;;;;11.87;58.05;95890.38;4993449;28;20049;-26
2023/03/01 04:33:46;;;;;;;1.35;0.90;;;;;;;11.90;58.04;95889.50;4995630;28;20374;-26
2023/03/01 04:36:13;;;;;;;0.83;0.67;;;;;;;11.97;57.25;95872.94;4994320;28;20033;-27
2023/03/01 04:38:40;;;;;;;2.00;0.82;;;;;;;11.87;57.92;95880.28;5002448;28;20034;-27
2023/03/01 04:41:07;;;;;;;0.93;0.60;;;;;;;11.98;57.71;95877.16;4994488;28;20057;-26
2023/03/01 04:43:33;;;;;;;1.92;0.70;;;;;;;11.86;57.94;95878.03;4998598;28;20029;-26
2023/03/01 04:46:09;;;;;;;0.93;0.57;;;;;;;11.72;57.80;95878.53;5000632;28;20549;-26
2023/03/01 04:48:39;;;;;;;1.10;0.70;;;;;;;11.64;57.99;95875.31;4995214;28;20026;-26
2023/03/01 04:51:05;;;;;;;0.90;0.60;;;;;;;11.80;57.73;95885.22;4995061;28;20026;-26
2023/03/01 04:53:32;;;;;;;0.77;0.47;;;;;;;11.71;57.84;95883.22;4994590;28;20049;-26
2023/03/01 04:55:58;;;;;;;1.00;0.60;;;;;;;11.89;57.73;95890.69;4994935;28;20058;-26
2023/03/01 04:58:25;;;;;;;0.88;0.57;;;;;;;11.70;57.65;95892.56;4994733;28;20062;-26
2023/03/01 05:00:51;;;;;;;0.70;0.40;;;;;;;11.72;57.37;95895.59;5006512;28;20066;-26
2023/03/01 05:03:18;;;;;;;0.98;0.43;;;;;;;11.70;57.46;95898.00;4994266;28;20024;-26
2023/03/01 05:05:44;;;;;;;1.80;0.52;;;;;;;11.77;56.88;95892.31;4994882;28;20027;-26
2023/03/01 05:08:17;;;;;;;0.50;0.40;;;;;;;11.78;56.99;95893.81;4994557;28;20018;-26
2023/03/01 05:10:46;;;;;;;1.15;0.50;;;;;;;11.85;56.96;95888.13;4994699;28;20395;-26
2023/03/01 05:13:20;;;;;;;0.63;0.30;;;;;;;11.55;57.51;95897.00;5001950;28;20064;-26
2023/03/01 05:15:48;;;;;;;0.95;0.50;;;;;;;11.79;56.81;95895.34;4994086;28;20026;-26
2023/03/01 05:18:14;;;;;;;1.10;0.55;;;;;;;11.81;56.67;95898.38;4994348;28;20030;-26
2023/03/01 05:20:40;;;;;;;1.48;0.98;;;;;;;11.48;57.55;95895.34;4994046;28;20482;-26
2023/03/01 05:23:05;;;;;;;1.42;0.73;;;;;;;11.68;56.64;95886.81;4994440;28;20026;-26
2023/03/01 05:25:32;;;;;;;1.02;0.50;;;;;;;11.65;56.98;95897.81;4994061;28;20026;-26
2023/03/01 05:28:04;;;;;;;1.52;0.82;;;;;;;11.58;57.06;95901.56;4994689;28;20022;-26
2023/03/01 05:30:31;;;;;;;2.30;1.23;;;;;;;11.34;57.58;95900.53;5001279;28;20034;-26
2023/03/01 05:32:56;;;;;;;1.52;0.90;;;;;;;11.55;57.01;95905.16;4994741;28;20077;-27
2023/03/01 05:35:22;;;;;;;1.42;0.60;;;;;;;11.62;57.32;95907.59;5002369;28;20477;-27
2023/03/01 05:37:49;;;;;;;0.82;0.50;;;;;;;11.62;57.33;95913.03;4994580;28;20073;-26
2023/03/01 05:40:20;;;;;;;1.15;0.45;;;;;;;11.63;57.23;95902.91;4993958;28;20026;-27
2023/03/01 05:42:48;;;;;;;3.35;1.17;;;;;;;11.69;57.07;95893.00;4994005;28;20080;-26
2023/03/01 05:45:15;;;;;;;2.35;1.20;;;;;;;11.57;57.40;95891.91;4993838;28;20065;-26
2023/03/01 05:47:43;;;;;;;0.77;0.47;;;;;;;11.60;56.83;95893.72;4994833;28;20034;-26
2023/03/01 05:50:29;;;;;;;1.20;0.80;;;;;;;11.70;56.13;95886.38;4996851;28;20018;-26
2023/03/01 05:53:00;;;;;;;0.80;0.50;;;;;;;11.47;57.09;95884.91;5004523;28;20026;-26
2023/03/01 05:55:27;;;;;;;0.68;0.50;;;;;;;11.62;56.54;95883.16;4997478;28;20018;-27
2023/03/01 05:57:52;;;;;;;1.67;0.55;;;;;;;11.62;56.53;95877.72;4997541;28;20052;-26
2023/03/01 06:00:21;;;;;;;0.50;0.40;;;;;;;11.53;57.21;95883.88;4997252;28;20486;-26
2023/03/01 06:02:48;;;;;;;1.05;0.40;;;;;;;11.43;57.19;95889.72;4998816;28;20058;-26
2023/03/01 06:05:14;;;;;;;1.35;0.40;;;;;;;11.49;56.52;95887.94;4997348;28;20104;-27
2023/03/01 06:07:41;;;;;;;0.85;0.30;;;;;;;11.61;56.25;95891.78;4997555;28;20073;-26
2023/03/01 06:10:08;;;;;;;1.20;0.50;;;;;;;11.73;56.50;95896.34;4998605;28;20032;-26
2023/03/01 06:12:36;;;;;;;0.88;0.55;;;;;;;11.68;56.56;95908.53;5003372;28;20084;-26
2023/03/01 06:15:03;;;;;;;2.08;0.50;;;;;;;11.68;56.93;95913.97;4998047;28;20028;-26
2023/03/01 06:17:30;;;;;;;0.63;0.40;;;;;;;11.70;56.94;95925.16;4997077;28;20449;-27
2023/03/01 06:19:56;;;;;;;1.23;0.52;;;;;;;11.60;56.77;95920.88;4997439;28;20108;-26
2023/03/01 06:22:21;;;;;;;0.70;0.50;;;;;;;11.53;57.12;95921.13;4996880;28;20026;-26
2023/03/01 06:24:47;;;;;;;0.60;0.60;;;;;;;11.53;57.20;95924.59;4997274;28;20034;-26
2023/03/01 06:27:13;;;;;;;1.05;0.65;;;;;;;11.53;57.53;95932.00;4997674;28;20081;-27
2023/03/01 06:29:38;;;;;;;0.75;0.50;;;;;;;11.51;57.20;95926.25;5003338;28;20053;-27
2023/03/01 06:32:04;;;;;;;1.33;0.60;;;;;;;11.59;57.26;95934.91;4996884;28;20390;-27
2023/03/01 06:34:29;;;;;;;1.00;0.50;;;;;;;11.44;57.24;95926.53;4997057;28;20066;-27
2023/03/01 06:36:55;;;;;;;0.70;0.50;;;;;;;11.53;57.26;95921.13;4996877;28;20018;-27
2023/03/01 06:39:20;;;;;;;0.70;0.50;;;;;;;11.50;57.18;95922.78;4997466;28;20034;-26
2023/03/01 06:41:46;;;;;;;0.85;0.50;;;;;;;11.50;57.06;95922.03;5000620;28;20033;-26
2023/03/01 06:44:11;;;;;;;0.82;0.50;;;;;;;11.65;56.62;95923.00;4997268;28;20050;-26
2023/03/01 06:46:37;;;;;;;0.95;0.63;;;;;;;11.49;57.25;95923.25;4996948;28;20382;-26
2023/03/01 06:49:07;;;;;;;0.82;0.63;;;;;;;11.51;57.24;95920.81;4996432;28;20023;-26
2023/03/01 06:51:33;;;;;;;2.10;1.20;;;;;;;11.57;57.14;95916.34;4997490;28;20032;-26
2023/03/01 06:53:58;;;;;;;5.65;2.72;;;;;;;11.50;57.05;95914.63;4997258;28;20022;-26
2023/03/01 06:56:24;;;;;;;7.85;3.47;;;;;;;11.38;56.86;95920.91;4997139;28;20026;-26
2023/03/01 06:58:49;;;;;;;9.90;4.35;;;;;;;11.40;57.28;95923.16;4996533;28;20490;-26
2023/03/01 07:01:15;;;;;;;20.42;7.82;;;;;;;11.62;57.01;95929.31;4993593;28;20394;-27
2023/03/01 07:03:40;;;;;;;18.25;6.22;;;;;;;11.43;57.33;95925.75;4996997;28;20113;-26
2023/03/01 07:06:06;;;;;;;16.85;7.05;;;;;;;11.53;56.82;95923.84;4996344;28;20076;-26
2023/03/01 07:08:31;;;;;;;28.55;13.20;;;;;;;11.56;57.05;95931.13;5009144;28;20014;-27
2023/03/01 07:10:59;;;;;;;36.05;18.42;;;;;;;11.52;57.15;95930.47;4997523;28;20394;-26
2023/03/01 07:13:24;;;;;;;25.58;15.20;;;;;;;11.58;56.66;95928.72;4996190;28;20034;-26
2023/03/01 07:15:50;;;;;;;17.90;11.05;;;;;;;11.53;56.91;95932.00;4996016;28;20026;-26
2023/03/01 07:18:15;;;;;;;8.70;5.57;;;;;;;11.50;56.96;95928.22;4996550;28;20022;-27
2023/03/01 07:20:41;;;;;;;10.50;7.47;;;;;;;11.51;57.45;95934.41;4995985;28;20022;-26
2023/03/01 07:23:06;;;;;;;5.43;3.75;;;;;;;11.12;57.61;95936.59;4996158;28;20445;-26
2023/03/01 07:25:32;;;;;;;3.25;2.20;;;;;;;11.53;56.76;95932.00;4999368;28;20019;-26
2023/03/01 07:27:58;;;;;;;3.72;1.70;;;;;;;11.64;56.74;95935.06;4996343;28;20035;-26
2023/03/01 07:30:25;;;;;;;3.00;1.10;;;;;;;11.49;56.60;95928.69;4995812;28;20061;-26
2023/03/01 07:32:51;;;;;;;2.33;1.50;;;;;;;11.57;56.95;95921.78;4996380;28;20470;-26
2023/03/01 07:35:17;;;;;;;1.92;1.50;;;;;;;11.52;57.29;95925.81;4995872;28;20038;-26
2023/03/01 07:37:43;;;;;;;3.00;1.80;;;;;;;11.45;57.71;95926.09;4995599;28;20033;-26
2023/03/01 07:40:09;;;;;;;1.98;1.55;;;;;;;11.69;56.77;95931.78;4995580;28;20101;-26
2023/03/01 07:42:34;;;;;;;1.83;1.45;;;;;;;11.73;56.41;95929.72;4996426;28;20639;-26
2023/03/01 07:45:00;;;;;;;1.95;1.25;;;;;;;11.50;57.45;95927.44;4995650;28;20498;-26
2023/03/01 07:47:25;;;;;;;1.65;1.20;;;;;;;11.60;56.78;95934.47;4996179;28;20026;-26
2023/03/01 07:49:51;;;;;;;1.45;0.90;;;;;;;11.58;56.86;95936.88;4995207;28;20406;-26
2023/03/01 07:52:16;;;;;;;1.13;0.75;;;;;;;11.70;57.09;95938.75;4995957;28;20026;-26
2023/03/01 07:54:45;;;;;;;1.35;0.85;;;;;;;11.60;57.34;95939.91;5001840;28;20057;-26
2023/03/01 07:57:11;;;;;;;2.25;0.60;;;;;;;11.54;56.83;95944.38;4995730;28;20026;-26
2023/03/01 07:59:36;;;;;;;1.23;0.90;;;;;;;11.64;56.99;95956.81;4995355;28;20033;-26
2023/03/01 08:02:02;;;;;;;1.77;0.90;;;;;;;11.78;56.99;95948.16;4995976;28;20030;-26
2023/03/01 08:04:27;;;;;;;1.10;0.95;;;;;;;11.78;56.85;95953.59;4995037;28;20183;-26
2023/03/01 08:06:54;;;;;;;2.50;1.55;;;;;;;11.69;56.87;95950.81;4995967;28;20069;-26
2023/03/01 08:09:20;;;;;;;2.67;1.25;;;;;;;11.64;57.12;95950.63;4996162;28;20053;-26
2023/03/01 08:11:46;;;;;;;1.80;1.10;;;;;;;11.72;57.32;95955.34;4994601;28;20142;-26
2023/03/01 08:14:11;;;;;;;1.63;1.20;;;;;;;11.82;56.72;95954.22;4996020;28;20022;-26
2023/03/01 08:16:37;;;;;;;1.02;0.80;;;;;;;11.61;57.22;95949.56;4995570;28;20026;-26
2023/03/01 08:19:07;;;;;;;1.20;0.90;;;;;;;11.76;57.10;95955.22;4994911;28;20118;-26
2023/03/01 08:21:34;;;;;;;1.20;0.80;;;;;;;11.72;57.18;95966.22;4995026;28;20109;-26
2023/03/01 08:24:01;;;;;;;0.60;0.50;;;;;;;11.79;56.83;95954.34;4995011;28;20029;-26
2023/03/01 08:26:26;;;;;;;0.88;0.60;;;;;;;11.57;57.83;95951.66;5001712;28;20026;-26
2023/03/01 08:28:52;;;;;;;2.20;1.27;;;;;;;11.77;57.25;95962.94;5000912;28;20029;-26
2023/03/01 08:31:19;;;;;;;3.03;1.30;;;;;;;11.66;57.46;95961.78;5007807;28;20454;-26
2023/03/01 08:33:50;;;;;;;3.03;1.30;;;;;;;11.77;57.43;95957.50;4995063;28;20030;-26
2023/03/01 08:36:16;;;;;;;2.17;1.30;;;;;;;11.61;57.74;95960.44;4995009;28;20026;-26
2023/03/01 08:38:42;;;;;;;1.70;1.08;;;;;;;11.68;57.53;95965.59;4994534;28;20117;-26
2023/03/01 08:41:07;;;;;;;2.05;1.10;;;;;;;11.80;57.34;95967.50;5002015;28;20034;-26
2023/03/01 08:43:32;;;;;;;2.05;1.30;;;;;;;11.94;57.16;95955.34;4995215;28;20053;-26
2023/03/01 08:45:58;;;;;;;1.70;1.08;;;;;;;11.78;57.12;95960.97;4994334;28;20489;-26
2023/03/01 08:48:24;;;;;;;1.02;0.90;;;;;;;11.88;57.16;95955.16;4995270;28;20018;-26
2023/03/01 08:50:50;;;;;;;0.80;0.60;;;;;;;11.94;57.15;95965.44;5001951;28;20136;-27
2023/03/01 08:53:16;;;;;;;0.60;0.50;;;;;;;11.78;57.70;95958.25;4994060;28;20164;-27
2023/03/01 08:55:41;;;;;;;0.50;0.50;;;;;;;11.92;57.07;95954.25;4995031;28;20029;-27
2023/03/01 08:58:06;;;;;;;0.82;0.50;;;;;;;11.82;57.55;95956.94;5000522;28;20065;-26
2023/03/01 09:00:34;;;;;;;0.65;0.47;;;;;;;11.76;57.66;95955.22;4994293;28;20467;-27
2023/03/01 09:03:00;;;;;;;0.70;0.70;;;;;;;11.99;56.98;95957.47;4994955;28;20105;-27
2023/03/01 09:05:25;;;;;;;0.50;0.40;;;;;;;11.74;57.29;95952.97;4994358;28;20106;-26
2023/03/01 09:07:51;;;;;;;0.90;0.45;;;;;;;11.79;57.53;95949.69;4995492;28;20498;-26
2023/03/01 09:10:17;;;;;;;0.50;0.40;;;;;;;11.78;57.76;95950.88;4995026;28;20022;-27
2023/03/01 09:12:42;;;;;;;1.27;0.60;;;;;;;11.70;58.35;95957.00;4994258;28;20029;-26
2023/03/01 09:15:08;;;;;;;2.72;1.20;;;;;;;11.77;57.49;95954.03;4998065;28;20033;-26
2023/03/01 09:17:34;;;;;;;1.95;0.93;;;;;;;11.83;58.02;95949.56;4994782;28;20044;-26
2023/03/01 09:19:59;;;;;;;1.27;0.80;;;;;;;11.91;57.71;95950.03;4994352;28;20376;-26
2023/03/01 09:22:25;;;;;;;2.03;1.10;;;;;;;12.07;57.17;95958.72;4994291;28;20381;-26
2023/03/01 09:24:50;;;;;;;2.30;1.15;;;;;;;11.98;56.86;95963.38;4998104;28;20029;-26
2023/03/01 09:27:18;;;;;;;1.98;1.00;;;;;;;12.10;56.79;95959.78;4998126;28;20022;-26
2023/03/01 09:29:44;;;;;;;2.47;1.40;;;;;;;12.06;57.25;95956.44;4998033;28;20026;-26
2023/03/01 09:32:10;;;;;;;7.88;3.35;;;;;;;11.83;57.99;95954.97;4998244;28;20045;-26
2023/03/01 09:35:00;;;;;;;8.52;3.90;;;;;;;11.99;57.89;95945.84;4998170;28;20018;-26
2023/03/01 09:37:20;;;;;;;11.00;5.00;;;;;;;12.04;57.83;95953.41;4998498;28;20039;-27
2023/03/01 09:39:46;;;;;;;10.40;3.88;;;;;;;11.98;58.46;95949.78;4997975;28;20027;-27
2023/03/01 09:42:13;;;;;;;26.75;11.75;;;;;;;12.11;57.80;95948.47;4997664;28;20019;-27
2023/03/01 09:45:00;;;;;;;17.13;8.20;;;;;;;12.19;58.10;95955.13;4997111;28;20125;-27
2023/03/01 09:47:32;;;;;;;16.42;7.75;;;;;;;12.13;59.82;95950.72;4998271;28;20046;-27
2023/03/01 09:50:16;;;;;;;8.55;3.67;;;;;;;12.19;59.71;95952.41;4997834;28;20011;-26
2023/03/01 09:52:45;;;;;;;7.78;3.63;;;;;;;12.19;59.56;95954.38;4998196;28;20025;-26
2023/03/01 09:55:20;;;;;;;7.03;2.78;;;;;;;12.32;59.97;95952.31;4997606;28;20093;-26
2023/03/01 09:58:25;;;;;;;6.05;2.95;;;;;;;12.43;59.39;95951.88;4998716;28;20045;-26
2023/03/01 10:00:50;;;;;;;4.63;1.88;;;;;;;12.31;59.87;95948.06;4996498;28;20137;-27
2023/03/01 10:03:31;;;;;;;3.05;1.65;;;;;;;12.43;60.71;95958.06;4997274;28;20113;-27
2023/03/01 10:06:10;;;;;;;3.78;1.25;;;;;;;12.43;59.73;95960.78;4997953;28;20550;-27
2023/03/01 10:08:59;;;;;;;3.83;1.40;;;;;;;12.45;59.42;95961.09;4997535;28;20414;-26
2023/03/01 10:11:36;;;;;;;1.55;1.00;;;;;;;12.45;59.81;95966.53;4997911;28;20026;-26
2023/03/01 10:14:13;;;;;;;1.67;1.10;;;;;;;12.41;60.26;95959.72;4998556;28;20041;-27
2023/03/01 10:16:53;;;;;;;1.85;1.23;;;;;;;12.63;58.76;95968.53;4997455;28;20109;-26
2023/03/01 10:19:29;;;;;;;3.45;1.70;;;;;;;12.58;59.21;95971.88;5004776;28;20497;-27
2023/03/01 10:22:00;;;;;;;2.40;1.30;;;;;;;12.57;59.46;95973.06;4997262;28;20034;-26
2023/03/01 10:24:31;;;;;;;2.95;1.50;;;;;;;12.59;58.90;95976.88;5004069;28;20104;-27
2023/03/01 10:27:02;;;;;;;5.40;3.17;;;;;;;12.61;59.64;95978.38;4997215;28;20023;-27
2023/03/01 10:29:37;;;;;;;1.90;1.17;;;;;;;12.70;59.53;95978.41;5004461;28;20217;-26
2023/03/01 10:32:06;;;;;;;2.58;1.08;;;;;;;12.67;58.36;95982.00;5001282;28;20027;-27
2023/03/01 10:34:34;;;;;;;1.90;1.30;;;;;;;12.65;58.13;95976.25;5002685;28;20098;-26
2023/03/01 10:37:13;;;;;;;2.67;1.50;;;;;;;12.56;58.97;95977.75;4996841;28;20030;-27
2023/03/01 10:39:55;;;;;;;2.13;1.10;;;;;;;12.44;58.55;95983.31;4997047;28;20046;-27
2023/03/01 10:42:30;;;;;;;1.30;0.80;;;;;;;12.55;59.01;95981.69;4996881;28;20025;-26
2023/03/01 10:44:56;;;;;;;1.30;0.90;;;;;;;12.30;58.31;95984.63;4996477;28;20091;-27
2023/03/01 10:47:24;;;;;;;1.08;0.82;;;;;;;12.64;57.70;95983.66;4996670;28;20102;-27
2023/03/01 10:50:02;;;;;;;0.95;0.80;;;;;;;12.53;57.64;95978.66;5003696;28;20478;-27
2023/03/01 10:52:31;;;;;;;1.15;0.77;;;;;;;12.59;57.00;95976.88;5002863;28;20046;-27
2023/03/01 10:55:25;;;;;;;0.90;0.60;;;;;;;12.55;57.32;95976.25;5003838;28;20064;-27
2023/03/01 10:58:07;;;;;;;1.10;0.60;;;;;;;12.55;58.19;95978.97;5002883;28;20037;-27
2023/03/01 11:00:33;;;;;;;1.17;0.60;;;;;;;12.61;58.28;95972.94;4996227;28;20110;-26
2023/03/01 11:02:58;;;;;;;1.20;0.90;;;;;;;12.40;58.56;95975.28;4997723;28;20026;-27
2023/03/01 11:05:25;;;;;;;1.63;0.50;;;;;;;12.52;58.70;95968.22;4996350;28;20447;-27
2023/03/01 11:07:56;;;;;;;0.82;0.70;;;;;;;12.56;57.40;95972.31;4996315;28;20500;-27
2023/03/01 11:10:29;;;;;;;1.55;0.80;;;;;;;12.40;57.60;95974.53;4996760;28;20371;-27
2023/03/01 11:13:23;;;;;;;0.90;0.50;;;;;;;12.50;57.38;95979.53;4997670;28;20112;-27
2023/03/01 11:16:12;;;;;;;1.25;0.63;;;;;;;12.74;57.98;95977.03;4998732;28;20038;-27
2023/03/01 11:18:38;;;;;;;2.63;0.80;;;;;;;12.76;57.62;95979.28;4996222;28;20030;-27
2023/03/01 11:21:08;;;;;;;0.82;0.50;;;;;;;12.70;57.66;95970.22;4996624;28;20030;-26
2023/03/01 11:23:37;;;;;;;1.10;0.70;;;;;;;12.55;57.76;95970.81;4996119;28;20096;-27
2023/03/01 11:26:08;;;;;;;1.50;1.23;;;;;;;12.51;57.66;95958.53;4996191;28;20022;-27
2023/03/01 11:28:37;;;;;;;1.58;0.52;;;;;;;12.71;57.62;95958.13;4995891;28;20017;-27
2023/03/01 11:31:05;;;;;;;1.95;0.98;;;;;;;12.66;57.58;95958.72;4995615;28;20018;-27
2023/03/01 11:33:36;;;;;;;2.50;1.20;;;;;;;12.51;57.68;95953.84;4996894;28;20030;-27
2023/03/01 11:36:11;;;;;;;3.45;1.60;;;;;;;12.71;57.05;95950.75;5012096;28;20037;-27
2023/03/01 11:38:38;;;;;;;2.45;1.60;;;;;;;12.76;56.59;95952.84;4996732;28;20022;-27
2023/03/01 11:41:14;;;;;;;3.75;1.77;;;;;;;12.64;57.43;95956.44;4995478;28;20415;-27
2023/03/01 11:44:02;;;;;;;2.83;1.67;;;;;;;12.63;57.55;95951.47;4996395;28;20057;-27